sensor_id;sensor_type;location;lat;lon;timestamp;P1;durP1;ratioP1;P2;durP2;ratioP2
22929;SDS011;11630;42.660;23.292;2023-03-23T00:02:18;38.33;;;23.33;;
22929;SDS011;11630;42.660;23.292;2023-03-23T00:04:56;35.23;;;21.00;;
22929;SDS011;11630;42.660;23.292;2023-03-23T00:07:27;30.97;;;20.03;;
22929;SDS011;11630;42.660;23.292;2023-03-23T00:09:58;27.37;;;19.93;;
22929;SDS011;11630;42.660;23.292;2023-03-23T00:12:28;27.20;;;19.90;;
22929;SDS011;11630;42.660;23.292;2023-03-23T00:15:05;27.80;;;18.63;;
22929;SDS011;11630;42.660;23.292;2023-03-23T00:17:37;30.00;;;18.90;;
22929;SDS011;11630;42.660;23.292;2023-03-23T00:20:08;31.87;;;19.87;;
22929;SDS011;11630;42.660;23.292;2023-03-23T00:22:37;26.70;;;18.60;;
22929;SDS011;11630;42.660;23.292;2023-03-23T00:25:07;22.63;;;16.77;;
22929;SDS011;11630;42.660;23.292;2023-03-23T00:27:38;32.67;;;17.27;;
22929;SDS011;11630;42.660;23.292;2023-03-23T00:30:09;21.50;;;16.50;;
22929;SDS011;11630;42.660;23.292;2023-03-23T00:32:39;22.57;;;18.07;;
22929;SDS011;11630;42.660;23.292;2023-03-23T00:35:11;24.17;;;17.17;;
22929;SDS011;11630;42.660;23.292;2023-03-23T00:37:42;25.40;;;16.70;;
22929;SDS011;11630;42.660;23.292;2023-03-23T00:40:12;25.33;;;17.27;;
22929;SDS011;11630;42.660;23.292;2023-03-23T00:42:43;20.20;;;15.27;;
22929;SDS011;11630;42.660;23.292;2023-03-23T00:45:14;18.77;;;13.90;;
22929;SDS011;11630;42.660;23.292;2023-03-23T00:47:46;20.33;;;14.67;;
22929;SDS011;11630;42.660;23.292;2023-03-23T00:50:17;22.50;;;15.07;;
22929;SDS011;11630;42.660;23.292;2023-03-23T00:52:49;22.73;;;13.83;;
22929;SDS011;11630;42.660;23.292;2023-03-23T00:55:19;17.33;;;13.30;;
22929;SDS011;11630;42.660;23.292;2023-03-23T00:57:50;16.77;;;13.00;;
22929;SDS011;11630;42.660;23.292;2023-03-23T01:00:21;22.00;;;13.93;;
22929;SDS011;11630;42.660;23.292;2023-03-23T01:02:53;21.33;;;15.47;;
22929;SDS011;11630;42.660;23.292;2023-03-23T01:05:22;18.53;;;14.33;;
22929;SDS011;11630;42.660;23.292;2023-03-23T01:07:52;21.33;;;16.73;;
22929;SDS011;11630;42.660;23.292;2023-03-23T01:10:24;22.70;;;15.70;;
22929;SDS011;11630;42.660;23.292;2023-03-23T01:12:55;19.63;;;14.87;;
22929;SDS011;11630;42.660;23.292;2023-03-23T01:15:25;22.17;;;15.43;;
22929;SDS011;11630;42.660;23.292;2023-03-23T01:17:57;21.47;;;13.77;;
22929;SDS011;11630;42.660;23.292;2023-03-23T01:20:26;18.47;;;13.63;;
22929;SDS011;11630;42.660;23.292;2023-03-23T01:22:58;20.00;;;13.80;;
22929;SDS011;11630;42.660;23.292;2023-03-23T01:25:29;17.33;;;13.87;;
22929;SDS011;11630;42.660;23.292;2023-03-23T01:27:59;22.70;;;13.20;;
22929;SDS011;11630;42.660;23.292;2023-03-23T01:30:31;17.70;;;14.50;;
22929;SDS011;11630;42.660;23.292;2023-03-23T01:33:02;19.57;;;14.40;;
22929;SDS011;11630;42.660;23.292;2023-03-23T01:35:32;18.07;;;14.33;;
22929;SDS011;11630;42.660;23.292;2023-03-23T01:38:03;20.80;;;14.10;;
22929;SDS011;11630;42.660;23.292;2023-03-23T01:40:34;21.83;;;13.57;;
22929;SDS011;11630;42.660;23.292;2023-03-23T01:43:08;15.87;;;12.93;;
22929;SDS011;11630;42.660;23.292;2023-03-23T01:45:40;16.77;;;13.30;;
22929;SDS011;11630;42.660;23.292;2023-03-23T01:48:16;24.60;;;16.47;;
22929;SDS011;11630;42.660;23.292;2023-03-23T01:50:56;23.77;;;16.20;;
22929;SDS011;11630;42.660;23.292;2023-03-23T01:53:36;25.60;;;16.43;;
22929;SDS011;11630;42.660;23.292;2023-03-23T01:56:10;24.57;;;16.07;;
22929;SDS011;11630;42.660;23.292;2023-03-23T01:58:43;20.23;;;14.67;;
22929;SDS011;11630;42.660;23.292;2023-03-23T02:01:14;20.03;;;14.07;;
22929;SDS011;11630;42.660;23.292;2023-03-23T02:03:45;20.73;;;14.47;;
22929;SDS011;11630;42.660;23.292;2023-03-23T02:06:16;22.33;;;14.57;;
22929;SDS011;11630;42.660;23.292;2023-03-23T02:08:48;22.10;;;15.03;;
22929;SDS011;11630;42.660;23.292;2023-03-23T02:11:19;21.10;;;15.07;;
22929;SDS011;11630;42.660;23.292;2023-03-23T02:13:51;19.87;;;14.30;;
22929;SDS011;11630;42.660;23.292;2023-03-23T02:19:39;20.27;;;13.93;;
22929;SDS011;11630;42.660;23.292;2023-03-23T02:22:24;21.20;;;15.20;;
22929;SDS011;11630;42.660;23.292;2023-03-23T02:30:50;20.03;;;14.80;;
22929;SDS011;11630;42.660;23.292;2023-03-23T02:33:38;21.53;;;15.43;;
22929;SDS011;11630;42.660;23.292;2023-03-23T02:36:28;18.23;;;14.67;;
22929;SDS011;11630;42.660;23.292;2023-03-23T02:38:53;20.97;;;14.77;;
22929;SDS011;11630;42.660;23.292;2023-03-23T02:41:22;18.67;;;15.30;;
22929;SDS011;11630;42.660;23.292;2023-03-23T02:43:53;20.03;;;14.93;;
22929;SDS011;11630;42.660;23.292;2023-03-23T02:46:25;19.50;;;14.00;;
22929;SDS011;11630;42.660;23.292;2023-03-23T02:48:57;16.70;;;13.13;;
22929;SDS011;11630;42.660;23.292;2023-03-23T02:51:31;17.33;;;12.87;;
22929;SDS011;11630;42.660;23.292;2023-03-23T02:54:03;17.83;;;13.03;;
22929;SDS011;11630;42.660;23.292;2023-03-23T02:56:37;20.20;;;14.53;;
22929;SDS011;11630;42.660;23.292;2023-03-23T02:59:09;21.27;;;12.33;;
22929;SDS011;11630;42.660;23.292;2023-03-23T03:04:16;17.10;;;14.20;;
22929;SDS011;11630;42.660;23.292;2023-03-23T03:07:01;22.90;;;12.57;;
22929;SDS011;11630;42.660;23.292;2023-03-23T03:09:52;18.47;;;13.97;;
22929;SDS011;11630;42.660;23.292;2023-03-23T03:12:26;21.70;;;15.53;;
22929;SDS011;11630;42.660;23.292;2023-03-23T03:17:59;25.27;;;17.03;;
22929;SDS011;11630;42.660;23.292;2023-03-23T03:20:25;25.50;;;17.87;;
22929;SDS011;11630;42.660;23.292;2023-03-23T03:22:57;25.00;;;18.23;;
22929;SDS011;11630;42.660;23.292;2023-03-23T03:25:29;26.03;;;17.93;;
22929;SDS011;11630;42.660;23.292;2023-03-23T03:28:01;26.27;;;18.77;;
22929;SDS011;11630;42.660;23.292;2023-03-23T03:30:33;33.13;;;19.70;;
22929;SDS011;11630;42.660;23.292;2023-03-23T03:33:05;28.13;;;21.40;;
22929;SDS011;11630;42.660;23.292;2023-03-23T03:35:38;28.67;;;19.00;;
22929;SDS011;11630;42.660;23.292;2023-03-23T03:38:10;31.67;;;22.43;;
22929;SDS011;11630;42.660;23.292;2023-03-23T03:40:41;39.33;;;26.57;;
22929;SDS011;11630;42.660;23.292;2023-03-23T03:43:11;46.87;;;26.50;;
22929;SDS011;11630;42.660;23.292;2023-03-23T03:45:45;47.27;;;27.67;;
22929;SDS011;11630;42.660;23.292;2023-03-23T03:48:16;41.03;;;26.80;;
22929;SDS011;11630;42.660;23.292;2023-03-23T03:50:47;51.03;;;28.53;;
22929;SDS011;11630;42.660;23.292;2023-03-23T03:53:18;45.03;;;27.97;;
22929;SDS011;11630;42.660;23.292;2023-03-23T03:55:49;45.67;;;28.87;;
22929;SDS011;11630;42.660;23.292;2023-03-23T03:58:21;48.37;;;30.37;;
22929;SDS011;11630;42.660;23.292;2023-03-23T04:00:51;38.53;;;26.67;;
22929;SDS011;11630;42.660;23.292;2023-03-23T04:03:22;42.80;;;28.80;;
22929;SDS011;11630;42.660;23.292;2023-03-23T04:05:54;42.80;;;29.10;;
22929;SDS011;11630;42.660;23.292;2023-03-23T04:08:25;41.03;;;28.90;;
22929;SDS011;11630;42.660;23.292;2023-03-23T04:10:55;43.33;;;28.63;;
22929;SDS011;11630;42.660;23.292;2023-03-23T04:13:26;41.10;;;27.30;;
22929;SDS011;11630;42.660;23.292;2023-03-23T04:15:56;46.60;;;28.40;;
22929;SDS011;11630;42.660;23.292;2023-03-23T04:18:27;45.93;;;30.93;;
22929;SDS011;11630;42.660;23.292;2023-03-23T04:20:58;44.60;;;28.90;;
22929;SDS011;11630;42.660;23.292;2023-03-23T04:23:29;45.60;;;29.00;;
22929;SDS011;11630;42.660;23.292;2023-03-23T04:26:01;47.30;;;28.60;;
22929;SDS011;11630;42.660;23.292;2023-03-23T04:28:31;43.03;;;29.10;;
22929;SDS011;11630;42.660;23.292;2023-03-23T04:31:01;41.90;;;28.03;;
22929;SDS011;11630;42.660;23.292;2023-03-23T04:33:32;42.47;;;29.93;;
22929;SDS011;11630;42.660;23.292;2023-03-23T04:36:04;39.73;;;26.93;;
22929;SDS011;11630;42.660;23.292;2023-03-23T04:38:34;38.60;;;25.97;;
22929;SDS011;11630;42.660;23.292;2023-03-23T04:41:04;41.27;;;25.90;;
22929;SDS011;11630;42.660;23.292;2023-03-23T04:43:35;38.50;;;25.70;;
22929;SDS011;11630;42.660;23.292;2023-03-23T04:46:06;38.03;;;25.30;;
22929;SDS011;11630;42.660;23.292;2023-03-23T04:48:38;35.83;;;23.87;;
22929;SDS011;11630;42.660;23.292;2023-03-23T04:51:09;40.07;;;25.10;;
22929;SDS011;11630;42.660;23.292;2023-03-23T04:53:39;34.20;;;23.03;;
22929;SDS011;11630;42.660;23.292;2023-03-23T04:56:10;35.07;;;25.50;;
22929;SDS011;11630;42.660;23.292;2023-03-23T04:58:41;38.40;;;26.73;;
22929;SDS011;11630;42.660;23.292;2023-03-23T05:01:12;35.60;;;26.07;;
22929;SDS011;11630;42.660;23.292;2023-03-23T05:03:42;35.93;;;24.20;;
22929;SDS011;11630;42.660;23.292;2023-03-23T05:06:13;31.73;;;23.67;;
22929;SDS011;11630;42.660;23.292;2023-03-23T05:08:44;36.03;;;24.60;;
22929;SDS011;11630;42.660;23.292;2023-03-23T05:11:14;40.07;;;25.53;;
22929;SDS011;11630;42.660;23.292;2023-03-23T05:13:45;34.50;;;24.50;;
22929;SDS011;11630;42.660;23.292;2023-03-23T05:16:17;33.90;;;24.93;;
22929;SDS011;11630;42.660;23.292;2023-03-23T05:18:48;43.37;;;27.53;;
22929;SDS011;11630;42.660;23.292;2023-03-23T05:21:18;36.33;;;25.47;;
22929;SDS011;11630;42.660;23.292;2023-03-23T05:23:49;40.87;;;25.17;;
22929;SDS011;11630;42.660;23.292;2023-03-23T05:26:20;42.00;;;24.70;;
22929;SDS011;11630;42.660;23.292;2023-03-23T05:28:51;35.57;;;25.23;;
22929;SDS011;11630;42.660;23.292;2023-03-23T05:31:22;37.47;;;25.80;;
22929;SDS011;11630;42.660;23.292;2023-03-23T05:33:52;34.13;;;23.70;;
22929;SDS011;11630;42.660;23.292;2023-03-23T05:36:24;38.40;;;26.80;;
22929;SDS011;11630;42.660;23.292;2023-03-23T05:38:55;47.07;;;27.20;;
22929;SDS011;11630;42.660;23.292;2023-03-23T05:41:26;35.73;;;24.53;;
22929;SDS011;11630;42.660;23.292;2023-03-23T05:43:56;39.93;;;27.03;;
22929;SDS011;11630;42.660;23.292;2023-03-23T05:46:27;36.17;;;25.53;;
22929;SDS011;11630;42.660;23.292;2023-03-23T05:48:58;38.23;;;25.57;;
22929;SDS011;11630;42.660;23.292;2023-03-23T05:51:29;38.20;;;26.17;;
22929;SDS011;11630;42.660;23.292;2023-03-23T05:54:00;38.57;;;25.87;;
22929;SDS011;11630;42.660;23.292;2023-03-23T05:56:31;35.63;;;24.53;;
22929;SDS011;11630;42.660;23.292;2023-03-23T05:59:02;34.93;;;25.57;;
22929;SDS011;11630;42.660;23.292;2023-03-23T06:01:32;42.30;;;25.67;;
22929;SDS011;11630;42.660;23.292;2023-03-23T06:04:03;35.53;;;24.47;;
22929;SDS011;11630;42.660;23.292;2023-03-23T06:06:33;36.43;;;25.97;;
22929;SDS011;11630;42.660;23.292;2023-03-23T06:09:04;36.20;;;26.33;;
22929;SDS011;11630;42.660;23.292;2023-03-23T06:11:35;39.23;;;25.23;;
22929;SDS011;11630;42.660;23.292;2023-03-23T06:14:06;35.13;;;24.93;;
22929;SDS011;11630;42.660;23.292;2023-03-23T06:16:36;40.43;;;27.17;;
22929;SDS011;11630;42.660;23.292;2023-03-23T06:19:07;39.03;;;27.40;;
22929;SDS011;11630;42.660;23.292;2023-03-23T06:21:38;33.47;;;23.07;;
22929;SDS011;11630;42.660;23.292;2023-03-23T06:24:09;33.27;;;24.70;;
22929;SDS011;11630;42.660;23.292;2023-03-23T06:26:40;35.27;;;25.33;;
22929;SDS011;11630;42.660;23.292;2023-03-23T06:29:11;37.97;;;25.50;;
22929;SDS011;11630;42.660;23.292;2023-03-23T06:31:46;35.90;;;25.23;;
22929;SDS011;11630;42.660;23.292;2023-03-23T06:34:17;31.77;;;23.83;;
22929;SDS011;11630;42.660;23.292;2023-03-23T06:36:47;32.47;;;25.63;;
22929;SDS011;11630;42.660;23.292;2023-03-23T06:39:17;33.13;;;25.17;;
22929;SDS011;11630;42.660;23.292;2023-03-23T06:41:48;35.97;;;25.83;;
22929;SDS011;11630;42.660;23.292;2023-03-23T06:44:19;40.53;;;26.50;;
22929;SDS011;11630;42.660;23.292;2023-03-23T06:46:51;37.63;;;26.40;;
22929;SDS011;11630;42.660;23.292;2023-03-23T06:49:22;41.57;;;27.87;;
22929;SDS011;11630;42.660;23.292;2023-03-23T06:51:52;36.37;;;27.77;;
22929;SDS011;11630;42.660;23.292;2023-03-23T06:54:24;39.77;;;28.63;;
22929;SDS011;11630;42.660;23.292;2023-03-23T06:56:55;41.30;;;27.30;;
22929;SDS011;11630;42.660;23.292;2023-03-23T06:59:26;41.73;;;28.07;;
22929;SDS011;11630;42.660;23.292;2023-03-23T07:01:56;41.73;;;30.27;;
22929;SDS011;11630;42.660;23.292;2023-03-23T07:04:27;42.50;;;28.80;;
22929;SDS011;11630;42.660;23.292;2023-03-23T07:06:58;45.80;;;28.00;;
22929;SDS011;11630;42.660;23.292;2023-03-23T07:09:28;42.63;;;30.90;;
22929;SDS011;11630;42.660;23.292;2023-03-23T07:11:59;36.60;;;27.20;;
22929;SDS011;11630;42.660;23.292;2023-03-23T07:14:31;42.23;;;27.60;;
22929;SDS011;11630;42.660;23.292;2023-03-23T07:17:02;38.73;;;26.07;;
22929;SDS011;11630;42.660;23.292;2023-03-23T07:19:32;39.90;;;26.67;;
22929;SDS011;11630;42.660;23.292;2023-03-23T07:22:04;38.67;;;27.27;;
22929;SDS011;11630;42.660;23.292;2023-03-23T07:24:35;36.73;;;27.27;;
22929;SDS011;11630;42.660;23.292;2023-03-23T07:27:05;42.50;;;27.37;;
22929;SDS011;11630;42.660;23.292;2023-03-23T07:29:36;40.80;;;25.97;;
22929;SDS011;11630;42.660;23.292;2023-03-23T07:32:08;39.67;;;26.50;;
22929;SDS011;11630;42.660;23.292;2023-03-23T07:34:40;37.87;;;28.20;;
22929;SDS011;11630;42.660;23.292;2023-03-23T07:37:10;45.63;;;26.57;;
22929;SDS011;11630;42.660;23.292;2023-03-23T07:39:41;37.90;;;25.63;;
22929;SDS011;11630;42.660;23.292;2023-03-23T07:42:11;35.03;;;23.17;;
22929;SDS011;11630;42.660;23.292;2023-03-23T07:44:41;33.33;;;23.70;;
22929;SDS011;11630;42.660;23.292;2023-03-23T07:47:12;34.27;;;23.63;;
22929;SDS011;11630;42.660;23.292;2023-03-23T07:49:43;43.50;;;23.73;;
22929;SDS011;11630;42.660;23.292;2023-03-23T07:52:14;33.97;;;23.63;;
22929;SDS011;11630;42.660;23.292;2023-03-23T07:54:44;35.20;;;23.53;;
22929;SDS011;11630;42.660;23.292;2023-03-23T07:57:16;36.73;;;23.83;;
22929;SDS011;11630;42.660;23.292;2023-03-23T07:59:47;30.83;;;23.53;;
22929;SDS011;11630;42.660;23.292;2023-03-23T08:02:16;31.77;;;22.73;;
22929;SDS011;11630;42.660;23.292;2023-03-23T08:04:46;27.93;;;22.50;;
22929;SDS011;11630;42.660;23.292;2023-03-23T08:07:17;30.13;;;22.83;;
22929;SDS011;11630;42.660;23.292;2023-03-23T08:09:48;28.07;;;21.67;;
22929;SDS011;11630;42.660;23.292;2023-03-23T08:12:19;28.47;;;21.77;;
22929;SDS011;11630;42.660;23.292;2023-03-23T08:14:50;23.67;;;17.00;;
22929;SDS011;11630;42.660;23.292;2023-03-23T08:17:21;27.20;;;18.33;;
22929;SDS011;11630;42.660;23.292;2023-03-23T08:19:52;27.23;;;18.13;;
22929;SDS011;11630;42.660;23.292;2023-03-23T08:22:22;31.27;;;22.60;;
22929;SDS011;11630;42.660;23.292;2023-03-23T08:24:53;28.77;;;21.60;;
22929;SDS011;11630;42.660;23.292;2023-03-23T08:27:24;30.63;;;20.60;;
22929;SDS011;11630;42.660;23.292;2023-03-23T08:29:55;21.70;;;16.67;;
22929;SDS011;11630;42.660;23.292;2023-03-23T08:32:26;31.33;;;20.40;;
22929;SDS011;11630;42.660;23.292;2023-03-23T08:34:57;34.00;;;22.23;;
22929;SDS011;11630;42.660;23.292;2023-03-23T08:37:27;29.37;;;20.70;;
22929;SDS011;11630;42.660;23.292;2023-03-23T08:39:58;29.00;;;19.43;;
22929;SDS011;11630;42.660;23.292;2023-03-23T08:42:28;18.73;;;14.90;;
22929;SDS011;11630;42.660;23.292;2023-03-23T08:44:59;19.63;;;16.03;;
22929;SDS011;11630;42.660;23.292;2023-03-23T08:47:31;19.90;;;12.30;;
22929;SDS011;11630;42.660;23.292;2023-03-23T08:50:03;20.23;;;13.27;;
22929;SDS011;11630;42.660;23.292;2023-03-23T08:52:33;18.83;;;12.33;;
22929;SDS011;11630;42.660;23.292;2023-03-23T08:55:05;9.63;;;8.07;;
22929;SDS011;11630;42.660;23.292;2023-03-23T08:57:36;13.33;;;8.20;;
22929;SDS011;11630;42.660;23.292;2023-03-23T09:00:08;11.37;;;8.23;;
22929;SDS011;11630;42.660;23.292;2023-03-23T09:02:46;12.70;;;9.97;;
22929;SDS011;11630;42.660;23.292;2023-03-23T09:05:20;11.60;;;9.40;;
22929;SDS011;11630;42.660;23.292;2023-03-23T09:07:51;9.60;;;7.73;;
22929;SDS011;11630;42.660;23.292;2023-03-23T09:10:22;13.13;;;8.50;;
22929;SDS011;11630;42.660;23.292;2023-03-23T09:12:54;24.23;;;10.73;;
22929;SDS011;11630;42.660;23.292;2023-03-23T09:15:25;13.33;;;8.80;;
22929;SDS011;11630;42.660;23.292;2023-03-23T09:17:55;11.30;;;8.87;;
22929;SDS011;11630;42.660;23.292;2023-03-23T09:20:27;12.80;;;9.13;;
22929;SDS011;11630;42.660;23.292;2023-03-23T09:22:58;10.77;;;8.73;;
22929;SDS011;11630;42.660;23.292;2023-03-23T09:25:29;15.17;;;9.27;;
22929;SDS011;11630;42.660;23.292;2023-03-23T09:28:00;15.10;;;9.47;;
22929;SDS011;11630;42.660;23.292;2023-03-23T09:30:31;20.90;;;9.23;;
22929;SDS011;11630;42.660;23.292;2023-03-23T09:33:07;10.07;;;8.00;;
22929;SDS011;11630;42.660;23.292;2023-03-23T09:35:34;9.30;;;7.90;;
22929;SDS011;11630;42.660;23.292;2023-03-23T09:38:10;12.33;;;9.03;;
22929;SDS011;11630;42.660;23.292;2023-03-23T09:40:48;12.53;;;9.30;;
22929;SDS011;11630;42.660;23.292;2023-03-23T09:43:40;13.20;;;9.77;;
22929;SDS011;11630;42.660;23.292;2023-03-23T09:48:59;12.07;;;8.60;;
22929;SDS011;11630;42.660;23.292;2023-03-23T09:54:35;14.60;;;9.37;;
22929;SDS011;11630;42.660;23.292;2023-03-23T09:57:51;10.93;;;8.73;;
22929;SDS011;11630;42.660;23.292;2023-03-23T10:00:03;13.50;;;9.63;;
22929;SDS011;11630;42.660;23.292;2023-03-23T10:02:47;12.10;;;9.00;;
22929;SDS011;11630;42.660;23.292;2023-03-23T10:05:30;14.13;;;9.53;;
22929;SDS011;11630;42.660;23.292;2023-03-23T10:08:11;13.20;;;9.20;;
22929;SDS011;11630;42.660;23.292;2023-03-23T10:16:09;13.47;;;9.20;;
22929;SDS011;11630;42.660;23.292;2023-03-23T10:18:41;15.60;;;9.43;;
22929;SDS011;11630;42.660;23.292;2023-03-23T10:21:16;10.23;;;8.40;;
22929;SDS011;11630;42.660;23.292;2023-03-23T10:23:52;10.67;;;8.73;;
22929;SDS011;11630;42.660;23.292;2023-03-23T10:31:58;11.97;;;7.93;;
22929;SDS011;11630;42.660;23.292;2023-03-23T10:34:32;10.27;;;7.50;;
22929;SDS011;11630;42.660;23.292;2023-03-23T10:37:58;13.67;;;8.83;;
22929;SDS011;11630;42.660;23.292;2023-03-23T10:39:56;12.57;;;8.23;;
22929;SDS011;11630;42.660;23.292;2023-03-23T10:42:31;11.33;;;9.63;;
22929;SDS011;11630;42.660;23.292;2023-03-23T10:45:28;8.07;;;6.97;;
22929;SDS011;11630;42.660;23.292;2023-03-23T10:48:07;12.73;;;8.17;;
22929;SDS011;11630;42.660;23.292;2023-03-23T10:50:38;9.80;;;7.70;;
22929;SDS011;11630;42.660;23.292;2023-03-23T10:53:21;9.60;;;7.57;;
22929;SDS011;11630;42.660;23.292;2023-03-23T10:55:52;9.00;;;7.53;;
22929;SDS011;11630;42.660;23.292;2023-03-23T10:58:25;10.53;;;7.90;;
22929;SDS011;11630;42.660;23.292;2023-03-23T11:01:01;10.43;;;8.47;;
22929;SDS011;11630;42.660;23.292;2023-03-23T11:06:08;11.93;;;8.00;;
22929;SDS011;11630;42.660;23.292;2023-03-23T11:08:52;12.47;;;7.97;;
22929;SDS011;11630;42.660;23.292;2023-03-23T11:14:12;10.20;;;7.87;;
22929;SDS011;11630;42.660;23.292;2023-03-23T11:16:49;9.43;;;7.40;;
22929;SDS011;11630;42.660;23.292;2023-03-23T11:19:30;10.83;;;7.53;;
22929;SDS011;11630;42.660;23.292;2023-03-23T11:24:39;8.40;;;6.90;;
22929;SDS011;11630;42.660;23.292;2023-03-23T11:27:10;8.03;;;7.20;;
22929;SDS011;11630;42.660;23.292;2023-03-23T11:30:01;10.23;;;7.07;;
22929;SDS011;11630;42.660;23.292;2023-03-23T11:32:43;9.63;;;7.60;;
22929;SDS011;11630;42.660;23.292;2023-03-23T11:35:16;11.33;;;6.97;;
22929;SDS011;11630;42.660;23.292;2023-03-23T11:37:48;12.10;;;7.43;;
22929;SDS011;11630;42.660;23.292;2023-03-23T11:40:20;11.47;;;7.47;;
22929;SDS011;11630;42.660;23.292;2023-03-23T11:43:07;43.03;;;10.87;;
22929;SDS011;11630;42.660;23.292;2023-03-23T11:45:40;19.37;;;8.40;;
22929;SDS011;11630;42.660;23.292;2023-03-23T11:51:05;10.53;;;7.40;;
22929;SDS011;11630;42.660;23.292;2023-03-23T11:56:36;10.23;;;7.20;;
22929;SDS011;11630;42.660;23.292;2023-03-23T11:59:11;9.07;;;7.30;;
22929;SDS011;11630;42.660;23.292;2023-03-23T12:07:32;12.57;;;7.13;;
22929;SDS011;11630;42.660;23.292;2023-03-23T12:10:08;8.13;;;7.10;;
22929;SDS011;11630;42.660;23.292;2023-03-23T12:24:03;9.43;;;7.33;;
22929;SDS011;11630;42.660;23.292;2023-03-23T12:26:48;8.13;;;6.17;;
22929;SDS011;11630;42.660;23.292;2023-03-23T12:29:26;6.13;;;5.53;;
22929;SDS011;11630;42.660;23.292;2023-03-23T12:32:17;13.30;;;6.30;;
22929;SDS011;11630;42.660;23.292;2023-03-23T12:35:00;7.90;;;6.30;;
22929;SDS011;11630;42.660;23.292;2023-03-23T12:37:35;28.60;;;7.97;;
22929;SDS011;11630;42.660;23.292;2023-03-23T12:43:05;6.53;;;5.87;;
22929;SDS011;11630;42.660;23.292;2023-03-23T12:46:10;7.93;;;6.13;;
22929;SDS011;11630;42.660;23.292;2023-03-23T12:48:56;7.03;;;5.73;;
22929;SDS011;11630;42.660;23.292;2023-03-23T12:51:32;11.47;;;6.23;;
22929;SDS011;11630;42.660;23.292;2023-03-23T12:54:16;8.53;;;6.70;;
22929;SDS011;11630;42.660;23.292;2023-03-23T12:57:53;10.23;;;6.40;;
22929;SDS011;11630;42.660;23.292;2023-03-23T12:59:39;14.07;;;6.90;;
22929;SDS011;11630;42.660;23.292;2023-03-23T13:02:15;16.37;;;7.00;;
22929;SDS011;11630;42.660;23.292;2023-03-23T13:07:59;8.87;;;6.53;;
22929;SDS011;11630;42.660;23.292;2023-03-23T13:10:32;8.90;;;6.87;;
22929;SDS011;11630;42.660;23.292;2023-03-23T13:13:02;8.17;;;6.93;;
22929;SDS011;11630;42.660;23.292;2023-03-23T13:15:44;11.10;;;6.47;;
22929;SDS011;11630;42.660;23.292;2023-03-23T13:21:12;7.50;;;5.50;;
22929;SDS011;11630;42.660;23.292;2023-03-23T13:23:42;8.83;;;7.30;;
22929;SDS011;11630;42.660;23.292;2023-03-23T13:26:19;12.23;;;6.83;;
22929;SDS011;11630;42.660;23.292;2023-03-23T13:28:59;10.40;;;5.63;;
22929;SDS011;11630;42.660;23.292;2023-03-23T13:31:32;8.70;;;5.60;;
22929;SDS011;11630;42.660;23.292;2023-03-23T13:34:12;22.97;;;7.20;;
22929;SDS011;11630;42.660;23.292;2023-03-23T13:36:37;7.93;;;5.70;;
22929;SDS011;11630;42.660;23.292;2023-03-23T13:39:19;9.50;;;5.90;;
22929;SDS011;11630;42.660;23.292;2023-03-23T13:42:18;16.37;;;5.97;;
22929;SDS011;11630;42.660;23.292;2023-03-23T13:44:42;8.67;;;5.80;;
22929;SDS011;11630;42.660;23.292;2023-03-23T13:47:26;6.50;;;5.50;;
22929;SDS011;11630;42.660;23.292;2023-03-23T13:49:56;8.93;;;5.87;;
22929;SDS011;11630;42.660;23.292;2023-03-23T13:55:37;8.60;;;6.67;;
22929;SDS011;11630;42.660;23.292;2023-03-23T14:01:00;9.57;;;6.00;;
22929;SDS011;11630;42.660;23.292;2023-03-23T14:03:31;9.27;;;6.10;;
22929;SDS011;11630;42.660;23.292;2023-03-23T14:06:02;7.90;;;5.77;;
22929;SDS011;11630;42.660;23.292;2023-03-23T14:08:37;8.90;;;5.27;;
22929;SDS011;11630;42.660;23.292;2023-03-23T14:11:12;7.67;;;5.67;;
22929;SDS011;11630;42.660;23.292;2023-03-23T14:18:56;8.57;;;5.73;;
22929;SDS011;11630;42.660;23.292;2023-03-23T14:24:09;7.23;;;5.67;;
22929;SDS011;11630;42.660;23.292;2023-03-23T14:26:37;6.77;;;5.33;;
22929;SDS011;11630;42.660;23.292;2023-03-23T14:29:09;12.90;;;5.80;;
22929;SDS011;11630;42.660;23.292;2023-03-23T14:31:40;6.20;;;5.60;;
22929;SDS011;11630;42.660;23.292;2023-03-23T14:34:13;11.03;;;5.83;;
22929;SDS011;11630;42.660;23.292;2023-03-23T14:36:45;11.70;;;5.70;;
22929;SDS011;11630;42.660;23.292;2023-03-23T14:39:21;5.80;;;4.90;;
22929;SDS011;11630;42.660;23.292;2023-03-23T14:42:06;8.07;;;6.47;;
22929;SDS011;11630;42.660;23.292;2023-03-23T14:44:48;13.70;;;6.13;;
22929;SDS011;11630;42.660;23.292;2023-03-23T14:47:25;10.23;;;5.63;;
22929;SDS011;11630;42.660;23.292;2023-03-23T14:49:55;12.13;;;5.67;;
22929;SDS011;11630;42.660;23.292;2023-03-23T14:52:27;7.83;;;5.50;;
22929;SDS011;11630;42.660;23.292;2023-03-23T14:55:19;7.77;;;5.40;;
22929;SDS011;11630;42.660;23.292;2023-03-23T14:57:52;6.10;;;5.50;;
22929;SDS011;11630;42.660;23.292;2023-03-23T15:00:32;8.57;;;5.60;;
22929;SDS011;11630;42.660;23.292;2023-03-23T15:02:56;11.73;;;6.63;;
22929;SDS011;11630;42.660;23.292;2023-03-23T15:05:29;11.17;;;6.00;;
22929;SDS011;11630;42.660;23.292;2023-03-23T15:08:03;14.97;;;6.60;;
22929;SDS011;11630;42.660;23.292;2023-03-23T15:10:37;12.60;;;6.77;;
22929;SDS011;11630;42.660;23.292;2023-03-23T15:13:10;9.33;;;6.20;;
22929;SDS011;11630;42.660;23.292;2023-03-23T15:15:41;23.67;;;6.23;;
22929;SDS011;11630;42.660;23.292;2023-03-23T15:19:16;10.97;;;7.07;;
22929;SDS011;11630;42.660;23.292;2023-03-23T15:21:07;13.67;;;7.43;;
22929;SDS011;11630;42.660;23.292;2023-03-23T15:23:40;18.23;;;6.47;;
22929;SDS011;11630;42.660;23.292;2023-03-23T15:26:23;20.77;;;6.93;;
22929;SDS011;11630;42.660;23.292;2023-03-23T15:29:11;10.37;;;6.80;;
22929;SDS011;11630;42.660;23.292;2023-03-23T15:31:47;13.13;;;6.30;;
22929;SDS011;11630;42.660;23.292;2023-03-23T15:34:35;7.30;;;6.33;;
22929;SDS011;11630;42.660;23.292;2023-03-23T15:37:06;8.67;;;6.47;;
22929;SDS011;11630;42.660;23.292;2023-03-23T15:39:44;15.33;;;6.60;;
22929;SDS011;11630;42.660;23.292;2023-03-23T15:42:39;14.33;;;7.73;;
22929;SDS011;11630;42.660;23.292;2023-03-23T15:45:03;11.27;;;6.37;;
22929;SDS011;11630;42.660;23.292;2023-03-23T15:47:35;12.43;;;6.23;;
22929;SDS011;11630;42.660;23.292;2023-03-23T15:50:16;8.27;;;6.13;;
22929;SDS011;11630;42.660;23.292;2023-03-23T15:52:48;11.37;;;6.70;;
22929;SDS011;11630;42.660;23.292;2023-03-23T15:55:25;13.27;;;7.40;;
22929;SDS011;11630;42.660;23.292;2023-03-23T15:57:55;13.43;;;7.47;;
22929;SDS011;11630;42.660;23.292;2023-03-23T16:00:26;11.60;;;7.00;;
22929;SDS011;11630;42.660;23.292;2023-03-23T16:02:59;17.70;;;8.37;;
22929;SDS011;11630;42.660;23.292;2023-03-23T16:05:30;10.47;;;7.43;;
22929;SDS011;11630;42.660;23.292;2023-03-23T16:08:02;15.17;;;7.37;;
22929;SDS011;11630;42.660;23.292;2023-03-23T16:10:33;11.70;;;6.60;;
22929;SDS011;11630;42.660;23.292;2023-03-23T16:13:04;11.57;;;6.70;;
22929;SDS011;11630;42.660;23.292;2023-03-23T16:15:35;14.23;;;7.30;;
22929;SDS011;11630;42.660;23.292;2023-03-23T16:18:06;10.93;;;6.33;;